createdAt,value
2018-05-02T00:02:27.279Z,99.90
2018-05-02T00:04:55.736Z,99.90
2018-05-02T00:07:24.876Z,99.90
2018-05-02T00:09:53.255Z,99.90
2018-05-02T00:12:21.851Z,99.90
2018-05-02T00:14:51.823Z,99.90
2018-05-02T00:17:20.983Z,99.90
2018-05-02T00:19:49.346Z,99.90
2018-05-02T00:22:17.960Z,99.90
2018-05-02T00:24:46.381Z,99.90
2018-05-02T00:27:15.540Z,99.90
2018-05-02T00:29:43.925Z,99.90
2018-05-02T00:32:12.332Z,99.90
2018-05-02T00:34:40.691Z,99.90
2018-05-02T00:37:09.119Z,99.90
2018-05-02T00:39:38.315Z,99.90
2018-05-02T00:42:06.770Z,99.90
2018-05-02T00:44:35.142Z,99.90
2018-05-02T00:47:03.538Z,99.90
2018-05-02T00:49:31.992Z,99.90
2018-05-02T00:52:01.328Z,99.90
2018-05-02T00:54:31.023Z,99.90
2018-05-02T00:57:00.737Z,99.90
2018-05-02T00:59:29.183Z,99.90
2018-05-02T01:01:57.749Z,99.90
2018-05-02T01:04:26.308Z,99.90
2018-05-02T01:06:54.738Z,99.90
2018-05-02T01:09:23.207Z,99.90
2018-05-02T01:11:52.528Z,99.90
2018-05-02T01:14:20.907Z,99.90
2018-05-02T01:16:50.396Z,99.90
2018-05-02T01:19:18.872Z,99.90
2018-05-02T01:21:47.244Z,99.90
2018-05-02T01:24:15.622Z,99.90
2018-05-02T01:26:44.024Z,99.90
2018-05-02T01:29:13.203Z,99.90
2018-05-02T01:31:41.761Z,99.90
2018-05-02T01:36:45.647Z,99.90
2018-05-02T01:39:14.055Z,99.90
2018-05-02T01:41:44.136Z,99.90
2018-05-02T01:44:12.633Z,99.90
2018-05-02T01:46:41.057Z,99.90
2018-05-02T01:49:21.331Z,99.90
2018-05-02T01:51:49.755Z,99.90
2018-05-02T01:54:18.163Z,99.90
2018-05-02T01:56:46.725Z,99.90
2018-05-02T01:59:15.942Z,99.90
2018-05-02T02:01:44.836Z,99.90
2018-05-02T02:04:13.429Z,99.90
2018-05-02T02:06:41.976Z,99.90
2018-05-02T02:09:11.195Z,99.90
2018-05-02T02:11:40.307Z,99.90
2018-05-02T02:14:08.695Z,99.90
2018-05-02T02:16:37.263Z,99.90
2018-05-02T02:19:05.687Z,99.90
2018-05-02T02:21:34.050Z,99.90
2018-05-02T02:24:02.908Z,99.90
2018-05-02T02:26:32.223Z,99.90
2018-05-02T02:29:00.691Z,99.90
2018-05-02T02:31:29.135Z,99.90
2018-05-02T02:33:58.460Z,99.90
2018-05-02T02:36:26.790Z,99.90
2018-05-02T02:38:55.217Z,99.90
2018-05-02T02:41:24.768Z,99.90
2018-05-02T02:43:53.958Z,99.90
2018-05-02T02:46:23.304Z,99.90
2018-05-02T02:48:51.855Z,99.90
2018-05-02T02:51:21.224Z,99.90
2018-05-02T02:53:50.379Z,99.90
2018-05-02T02:56:18.763Z,99.90
2018-05-02T02:58:48.144Z,99.90
2018-05-02T03:01:16.721Z,99.90
2018-05-02T03:03:45.866Z,99.90
2018-05-02T03:06:14.491Z,99.90
2018-05-02T03:08:43.044Z,99.90
2018-05-02T03:11:11.512Z,99.90
2018-05-02T03:13:41.297Z,99.90
2018-05-02T03:16:09.871Z,99.90
2018-05-02T03:18:38.421Z,99.90
2018-05-02T03:21:06.839Z,99.90
2018-05-02T03:23:35.390Z,99.90
2018-05-02T03:26:03.963Z,99.90
2018-05-02T03:28:32.369Z,99.90
2018-05-02T03:31:00.802Z,99.90
2018-05-02T03:33:29.350Z,99.90
2018-05-02T03:35:57.908Z,99.90
2018-05-02T03:38:26.340Z,99.90
2018-05-02T03:40:55.494Z,99.90
2018-05-02T03:43:23.875Z,99.90
2018-05-02T03:45:53.205Z,99.90
2018-05-02T03:48:21.739Z,99.90
2018-05-02T03:50:50.871Z,99.90
2018-05-02T03:53:20.095Z,99.90
2018-05-02T03:55:48.475Z,99.90
2018-05-02T03:58:17.039Z,99.90
2018-05-02T04:00:57.255Z,99.90
2018-05-02T04:06:40.429Z,99.90
2018-05-02T04:09:08.791Z,99.90
2018-05-02T04:11:38.116Z,99.90
2018-05-02T04:14:06.524Z,99.90
2018-05-02T04:16:34.901Z,99.90
2018-05-02T04:19:03.271Z,99.90
2018-05-02T04:21:32.623Z,99.90
2018-05-02T04:24:00.992Z,99.90
2018-05-02T04:26:29.359Z,99.90
2018-05-02T04:28:57.740Z,99.90
2018-05-02T04:31:26.160Z,99.90
2018-05-02T04:33:56.283Z,99.90
2018-05-02T04:36:24.658Z,99.90
2018-05-02T04:38:53.032Z,99.90
2018-05-02T04:41:21.438Z,99.90
2018-05-02T04:43:49.839Z,99.90
2018-05-02T04:46:18.349Z,99.90
2018-05-02T04:48:46.750Z,99.90
2018-05-02T04:51:15.296Z,99.90
2018-05-02T04:53:43.864Z,99.90
2018-05-02T04:56:12.444Z,99.90
2018-05-02T04:58:40.831Z,99.90
2018-05-02T05:01:09.448Z,99.90
2018-05-02T05:03:37.820Z,99.90
2018-05-02T05:06:06.980Z,99.90
2018-05-02T05:08:35.596Z,99.90
2018-05-02T05:11:04.025Z,99.90
2018-05-02T05:13:33.437Z,99.90
2018-05-02T05:16:01.995Z,99.90
2018-05-02T05:18:30.547Z,99.90
2018-05-02T05:20:59.109Z,99.90
2018-05-02T05:23:27.510Z,99.90
2018-05-02T05:25:55.920Z,99.90
2018-05-02T05:28:24.336Z,99.90
2018-05-02T05:30:52.724Z,99.90
2018-05-02T05:33:21.120Z,99.90
2018-05-02T05:35:49.499Z,99.90
2018-05-02T05:38:23.554Z,99.90
2018-05-02T05:40:51.909Z,99.90
2018-05-02T05:43:20.408Z,99.90
2018-05-02T05:45:48.960Z,99.90
2018-05-02T05:48:19.641Z,99.90
2018-05-02T05:50:48.027Z,99.90
2018-05-02T05:53:16.596Z,99.90
2018-05-02T05:55:45.029Z,99.90
2018-05-02T05:58:14.176Z,99.90
2018-05-02T06:00:44.825Z,99.90
2018-05-02T06:03:13.220Z,99.90
2018-05-02T06:05:41.598Z,99.90
2018-05-02T06:08:10.195Z,99.90
2018-05-02T06:10:38.633Z,99.90
2018-05-02T06:13:07.859Z,99.90
2018-05-02T06:15:36.465Z,99.90
2018-05-02T06:18:04.848Z,99.90
2018-05-02T06:20:33.218Z,99.90
2018-05-02T06:23:02.732Z,99.90
2018-05-02T06:25:31.114Z,99.90
2018-05-02T06:27:59.495Z,99.90
2018-05-02T06:30:27.900Z,99.90
2018-05-02T06:32:56.477Z,99.90
2018-05-02T06:35:24.886Z,99.90
2018-05-02T06:37:53.535Z,99.90
2018-05-02T06:40:21.864Z,99.90
2018-05-02T06:42:50.303Z,99.90
2018-05-02T06:45:24.149Z,99.90
2018-05-02T06:47:52.747Z,99.90
2018-05-02T06:50:22.053Z,99.90
2018-05-02T06:52:51.418Z,99.90
2018-05-02T06:55:19.831Z,99.90
2018-05-02T06:57:48.400Z,99.90
2018-05-02T07:00:17.739Z,99.90
2018-05-02T07:02:46.994Z,99.90
2018-05-02T07:05:15.375Z,99.90
2018-05-02T07:07:44.729Z,99.90
2018-05-02T07:10:13.116Z,99.90
2018-05-02T07:12:41.707Z,99.90
2018-05-02T07:15:10.887Z,99.90
2018-05-02T07:17:39.479Z,99.90
2018-05-02T07:20:07.928Z,99.90
2018-05-02T07:22:37.325Z,99.90
2018-05-02T07:25:05.734Z,99.90
2018-05-02T07:27:34.124Z,99.90
2018-05-02T07:30:02.540Z,99.90
2018-05-02T07:32:31.180Z,99.90
2018-05-02T07:35:00.492Z,99.90
2018-05-02T07:37:28.864Z,99.90
2018-05-02T07:39:57.297Z,99.90
2018-05-02T07:42:25.855Z,99.90
2018-05-02T07:44:54.229Z,99.90
2018-05-02T07:47:22.680Z,99.90
2018-05-02T07:49:51.231Z,99.90
2018-05-02T07:52:22.188Z,99.90
2018-05-02T07:54:51.357Z,99.90
2018-05-02T07:57:19.977Z,99.90
2018-05-02T07:59:48.375Z,99.90
2018-05-02T08:02:16.877Z,99.90
2018-05-02T08:04:45.281Z,99.90
2018-05-02T08:07:13.697Z,99.90
2018-05-02T08:09:42.079Z,99.90
2018-05-02T08:12:10.671Z,99.90
2018-05-02T08:14:46.299Z,99.90
2018-05-02T08:17:18.032Z,99.90
2018-05-02T08:19:46.457Z,99.90
2018-05-02T08:22:15.029Z,99.90
2018-05-02T08:24:43.437Z,99.90
2018-05-02T08:27:12.041Z,99.90
2018-05-02T08:29:42.268Z,99.90
2018-05-02T08:32:10.735Z,99.90
2018-05-02T08:34:39.878Z,99.90
2018-05-02T08:37:10.995Z,99.90
2018-05-02T08:39:39.384Z,99.90
2018-05-02T08:42:07.943Z,99.90
2018-05-02T08:44:36.361Z,99.90
2018-05-02T08:47:05.534Z,99.90
2018-05-02T08:49:33.979Z,99.90
2018-05-02T08:52:03.316Z,99.90
2018-05-02T08:54:31.814Z,99.90
2018-05-02T08:57:00.239Z,99.90
2018-05-02T08:59:29.395Z,99.90
2018-05-02T09:01:57.957Z,99.90
2018-05-02T09:04:26.408Z,99.90
2018-05-02T09:06:54.812Z,99.90
2018-05-02T09:09:23.223Z,99.90
2018-05-02T09:11:51.639Z,99.90
2018-05-02T09:14:20.806Z,99.90
2018-05-02T09:16:49.218Z,99.90
2018-05-02T09:19:18.410Z,99.90
2018-05-02T09:21:46.796Z,99.90
2018-05-02T09:24:15.249Z,99.90
2018-05-02T09:26:43.673Z,99.90
2018-05-02T09:29:12.853Z,99.90
2018-05-02T09:31:41.656Z,99.90
2018-05-02T09:34:10.055Z,99.90
2018-05-02T09:36:38.637Z,99.90
2018-05-02T09:39:07.001Z,99.90
2018-05-02T09:41:35.434Z,99.90
2018-05-02T09:44:04.071Z,99.90
2018-05-02T09:46:32.655Z,92.70
2018-05-02T09:49:01.073Z,95.20
2018-05-02T09:51:29.675Z,90.30
2018-05-02T09:53:58.241Z,92.50
2018-05-02T09:56:26.844Z,90.40
2018-05-02T09:58:56.016Z,75.70
2018-05-02T10:01:24.573Z,75.70
2018-05-02T10:03:53.064Z,71.80
2018-05-02T10:06:22.387Z,85.60
2018-05-02T10:08:52.202Z,85.80
2018-05-02T10:11:22.337Z,92.90
2018-05-02T10:13:50.887Z,90.60
2018-05-02T10:16:19.400Z,90.10
2018-05-02T10:18:49.195Z,63.00
2018-05-02T10:21:17.611Z,66.20
2018-05-02T10:23:46.165Z,63.40
2018-05-02T10:26:15.607Z,73.60
2018-05-02T10:28:44.139Z,73.00
2018-05-02T10:31:12.735Z,86.00
2018-05-02T10:33:42.305Z,94.80
2018-05-02T10:36:10.756Z,90.40
2018-05-02T10:38:39.154Z,99.90
2018-05-02T10:41:07.575Z,97.90
2018-05-02T10:43:36.751Z,94.20
2018-05-02T10:46:05.157Z,94.20
2018-05-02T10:48:33.743Z,91.00
2018-05-02T10:51:02.098Z,82.20
2018-05-02T10:53:30.483Z,90.50
2018-05-02T10:55:58.894Z,93.80
2018-05-02T10:58:27.476Z,95.80
2018-05-02T11:00:56.789Z,92.10
2018-05-02T11:03:25.332Z,92.20
2018-05-02T11:05:53.724Z,95.10
2018-05-02T11:08:22.146Z,98.20
2018-05-02T11:10:50.619Z,94.10
2018-05-02T11:13:21.064Z,94.80
2018-05-02T11:15:49.474Z,94.50
2018-05-02T11:18:17.906Z,96.20
2018-05-02T11:20:47.296Z,87.90
2018-05-02T11:23:16.567Z,97.40
2018-05-02T11:25:44.953Z,97.30
2018-05-02T11:28:14.103Z,96.30
2018-05-02T11:30:43.271Z,99.90
2018-05-02T11:33:11.731Z,99.90
2018-05-02T11:35:41.335Z,95.50
2018-05-02T11:38:11.079Z,97.10
2018-05-02T11:40:40.292Z,90.10
2018-05-02T11:43:09.615Z,95.10
2018-05-02T11:45:38.009Z,95.10
2018-05-02T11:48:07.292Z,97.60
2018-05-02T11:50:35.699Z,97.60
2018-05-02T11:53:04.156Z,94.10
2018-05-02T11:55:32.587Z,91.80
2018-05-02T11:58:02.176Z,93.30
2018-05-02T12:00:30.555Z,93.10
2018-05-02T12:02:58.949Z,91.80
2018-05-02T12:05:27.427Z,94.10
2018-05-02T12:07:55.830Z,97.00
2018-05-02T12:10:25.054Z,96.60
2018-05-02T12:12:53.503Z,96.80
2018-05-02T12:15:21.935Z,96.90
2018-05-02T12:17:50.358Z,94.90
2018-05-02T12:20:18.766Z,97.00
2018-05-02T12:22:47.333Z,90.60
2018-05-02T12:25:15.734Z,90.90
2018-05-02T12:27:44.105Z,96.00
2018-05-02T12:30:12.509Z,91.40
2018-05-02T12:32:40.949Z,90.10
2018-05-02T12:35:09.381Z,91.90
2018-05-02T12:37:40.243Z,91.30
2018-05-02T12:40:08.647Z,91.40
2018-05-02T12:42:37.219Z,90.60
2018-05-02T12:45:08.121Z,91.90
2018-05-02T12:47:36.548Z,83.80
2018-05-02T12:50:05.109Z,83.00
2018-05-02T12:52:33.524Z,91.30
2018-05-02T12:55:01.898Z,88.90
2018-05-02T12:57:30.271Z,87.40
2018-05-02T12:59:58.696Z,93.70
2018-05-02T13:02:27.184Z,86.20
2018-05-02T13:04:55.619Z,83.00
2018-05-02T13:07:24.519Z,89.70
2018-05-02T13:09:52.905Z,97.20
2018-05-02T13:12:21.296Z,94.00
2018-05-02T13:14:49.744Z,92.90
2018-05-02T13:17:18.134Z,96.10
2018-05-02T13:19:46.556Z,78.70
2018-05-02T13:22:14.955Z,76.60
2018-05-02T13:24:43.500Z,83.10
2018-05-02T13:27:12.568Z,87.40
2018-05-02T13:29:41.084Z,75.10
2018-05-02T13:32:09.439Z,79.50
2018-05-02T13:34:38.683Z,87.40
2018-05-02T13:37:07.070Z,87.40
2018-05-02T13:39:36.393Z,85.10
2018-05-02T13:42:04.785Z,90.70
2018-05-02T13:44:33.931Z,84.70
2018-05-02T13:47:02.319Z,84.70
2018-05-02T13:52:06.789Z,73.40
2018-05-02T13:54:35.257Z,66.50
2018-05-02T13:57:03.708Z,68.90
2018-05-02T13:59:32.091Z,79.00
2018-05-02T14:02:01.231Z,85.70
2018-05-02T14:04:29.673Z,85.40
2018-05-02T14:06:58.799Z,83.50
2018-05-02T14:09:27.155Z,83.50
2018-05-02T14:11:55.574Z,73.10
2018-05-02T14:14:23.972Z,80.80
2018-05-02T14:16:52.585Z,74.10
2018-05-02T14:19:20.975Z,70.60
2018-05-02T14:21:49.387Z,82.00
2018-05-02T14:24:20.064Z,76.10
2018-05-02T14:26:49.361Z,81.40
2018-05-02T14:29:20.402Z,82.10
2018-05-02T14:31:48.887Z,70.90
2018-05-02T14:34:18.208Z,68.70
2018-05-02T14:36:46.818Z,69.00
2018-05-02T14:39:15.373Z,69.40
2018-05-02T14:41:44.566Z,81.00
2018-05-02T14:44:12.959Z,80.70
2018-05-02T14:46:42.973Z,63.60
2018-05-02T14:49:12.322Z,67.00
2018-05-02T14:51:40.892Z,66.90
2018-05-02T14:54:10.171Z,79.40
2018-05-02T14:56:38.607Z,79.60
2018-05-02T14:59:08.664Z,75.80
2018-05-02T15:01:37.062Z,88.50
2018-05-02T15:04:05.628Z,91.70
2018-05-02T15:06:34.028Z,95.10
2018-05-02T15:11:40.294Z,94.30
2018-05-02T15:14:09.194Z,94.30
2018-05-02T15:16:37.771Z,95.20
2018-05-02T15:19:06.924Z,95.10
2018-05-02T15:21:35.345Z,95.10
2018-05-02T15:24:03.764Z,96.70
2018-05-02T15:26:32.187Z,95.00
2018-05-02T15:29:00.564Z,96.30
2018-05-02T15:31:29.724Z,95.20
2018-05-02T15:33:58.123Z,95.30
2018-05-02T15:36:28.353Z,92.90
2018-05-02T15:38:56.750Z,92.80
2018-05-02T15:41:25.161Z,92.20
2018-05-02T15:43:53.557Z,93.50
2018-05-02T15:46:21.992Z,95.10
2018-05-02T15:48:50.391Z,95.30
2018-05-02T15:51:18.778Z,96.50
2018-05-02T15:53:49.030Z,95.30
2018-05-02T15:56:17.403Z,95.30
2018-05-02T15:58:45.775Z,93.70
2018-05-02T16:01:14.178Z,94.50
2018-05-02T16:03:42.627Z,93.40
2018-05-02T16:06:11.007Z,93.50
2018-05-02T16:08:39.408Z,94.20
2018-05-02T16:11:07.799Z,97.50
2018-05-02T16:13:36.199Z,95.80
2018-05-02T16:16:05.535Z,97.20
2018-05-02T16:18:34.089Z,95.70
2018-05-02T16:21:04.047Z,94.70
2018-05-02T16:23:32.469Z,95.80
2018-05-02T16:26:00.846Z,95.40
2018-05-02T16:28:29.460Z,95.50
2018-05-02T16:30:57.831Z,96.60
2018-05-02T16:33:27.208Z,95.70
2018-05-02T16:35:55.715Z,95.10
2018-05-02T16:38:24.309Z,94.90
2018-05-02T16:40:52.689Z,93.60
2018-05-02T16:43:21.282Z,94.70
2018-05-02T16:45:49.671Z,96.10
2018-05-02T16:48:18.289Z,95.60
2018-05-02T16:50:46.661Z,97.00
2018-05-02T16:53:15.211Z,98.20
2018-05-02T16:55:45.280Z,97.50
2018-05-02T16:58:13.875Z,99.30
2018-05-02T17:00:42.279Z,99.90
2018-05-02T17:03:10.852Z,99.70
2018-05-02T17:05:39.710Z,99.90
2018-05-02T17:08:08.271Z,99.90
2018-05-02T17:10:36.695Z,99.90
2018-05-02T17:13:05.249Z,99.90
2018-05-02T17:15:33.641Z,99.90
2018-05-02T17:18:02.038Z,99.90
2018-05-02T17:20:30.461Z,99.90
2018-05-02T17:22:59.657Z,99.90
2018-05-02T17:25:28.208Z,99.90
2018-05-02T17:27:56.755Z,99.90
2018-05-02T17:30:25.152Z,99.90
2018-05-02T17:32:53.510Z,99.90
2018-05-02T17:35:22.349Z,99.90
2018-05-02T17:37:50.746Z,99.90
2018-05-02T17:40:19.161Z,99.90
2018-05-02T17:42:48.357Z,99.90
2018-05-02T17:45:17.507Z,99.90
2018-05-02T17:47:46.840Z,99.90
2018-05-02T17:50:16.660Z,99.90
2018-05-02T17:52:45.058Z,99.90
2018-05-02T17:55:13.460Z,99.90
2018-05-02T17:57:43.382Z,99.90
2018-05-02T18:00:11.923Z,99.90
2018-05-02T18:02:41.175Z,99.90
2018-05-02T18:05:09.769Z,99.90
2018-05-02T18:07:38.223Z,99.90
2018-05-02T18:10:06.616Z,99.90
2018-05-02T18:12:34.977Z,99.90
2018-05-02T18:15:03.363Z,99.90
2018-05-02T18:17:31.932Z,99.90
2018-05-02T18:20:00.455Z,99.90
2018-05-02T18:22:29.044Z,99.90
2018-05-02T18:24:57.602Z,99.90
2018-05-02T18:27:25.994Z,99.90
2018-05-02T18:29:54.388Z,99.90
2018-05-02T18:32:22.759Z,99.90
2018-05-02T18:34:51.151Z,99.90
2018-05-02T18:37:19.555Z,99.90
2018-05-02T18:39:48.094Z,99.90
2018-05-02T18:42:17.409Z,99.90
2018-05-02T18:44:46.006Z,99.90
2018-05-02T18:47:14.405Z,99.90
2018-05-02T18:52:21.623Z,99.90
2018-05-02T18:54:50.776Z,99.90
2018-05-02T18:57:20.140Z,99.90
2018-05-02T18:59:50.433Z,99.90
2018-05-02T19:02:19.009Z,99.90
2018-05-02T19:04:49.147Z,99.90
2018-05-02T19:07:17.700Z,99.90
2018-05-02T19:09:46.066Z,99.90
2018-05-02T19:12:14.507Z,99.90
2018-05-02T19:14:43.373Z,99.90
2018-05-02T19:17:13.191Z,99.90
2018-05-02T19:19:47.176Z,99.90
2018-05-02T19:22:15.816Z,99.90
2018-05-02T19:24:50.011Z,99.90
2018-05-02T19:27:18.426Z,99.90
2018-05-02T19:29:46.986Z,99.90
2018-05-02T19:32:21.115Z,99.90
2018-05-02T19:34:49.556Z,99.90
2018-05-02T19:37:17.979Z,99.90
2018-05-02T19:39:52.207Z,99.90
2018-05-02T19:42:26.351Z,99.90
2018-05-02T19:44:54.729Z,99.90
2018-05-02T19:47:23.361Z,99.90
2018-05-02T19:49:51.700Z,99.90
2018-05-02T19:52:25.943Z,99.90
2018-05-02T19:54:55.099Z,99.90
2018-05-02T19:57:24.477Z,99.90
2018-05-02T19:59:52.879Z,99.90
2018-05-02T20:05:23.280Z,99.90
2018-05-02T20:07:52.419Z,99.90
2018-05-02T20:10:26.709Z,99.90
2018-05-02T20:13:01.016Z,99.90
2018-05-02T20:15:29.432Z,99.90
2018-05-02T20:17:58.037Z,99.90
2018-05-02T20:20:26.623Z,99.90
2018-05-02T20:22:54.999Z,99.90
2018-05-02T20:25:23.612Z,99.90
2018-05-02T20:27:52.003Z,99.90
2018-05-02T20:30:20.560Z,99.90
2018-05-02T20:32:48.917Z,99.90
2018-05-02T20:35:19.072Z,99.90
2018-05-02T20:37:47.433Z,99.90
2018-05-02T20:40:15.943Z,99.90
2018-05-02T20:42:44.361Z,99.90
2018-05-02T20:45:12.721Z,99.90
2018-05-02T20:47:41.161Z,99.90
2018-05-02T20:50:11.380Z,99.90
2018-05-02T20:52:39.760Z,99.90
2018-05-02T20:55:09.021Z,99.90
2018-05-02T20:57:37.440Z,99.90
2018-05-02T21:00:05.896Z,99.90
2018-05-02T21:02:36.063Z,99.90
2018-05-02T21:05:04.471Z,99.90
2018-05-02T21:07:32.988Z,99.90
2018-05-02T21:10:02.165Z,99.90
2018-05-02T21:12:30.555Z,99.90
2018-05-02T21:14:58.979Z,99.90
2018-05-02T21:17:27.348Z,99.90
2018-05-02T21:19:55.744Z,99.90
2018-05-02T21:22:24.094Z,99.90
2018-05-02T21:24:52.471Z,99.90
2018-05-02T21:27:20.842Z,99.90
2018-05-02T21:29:49.200Z,99.90
2018-05-02T21:32:18.371Z,99.90
2018-05-02T21:34:47.523Z,99.90
2018-05-02T21:37:17.262Z,99.90
2018-05-02T21:39:50.503Z,99.90
2018-05-02T21:44:48.582Z,99.90
2018-05-02T21:47:17.033Z,99.90
2018-05-02T21:49:45.388Z,99.90
2018-05-02T21:52:13.791Z,99.90
2018-05-02T21:54:44.104Z,99.90
2018-05-02T21:57:12.494Z,99.90
2018-05-02T21:59:41.007Z,99.90
2018-05-02T22:02:09.464Z,99.90
2018-05-02T22:04:37.852Z,99.90
2018-05-02T22:07:06.248Z,99.90
2018-05-02T22:09:35.542Z,99.90
2018-05-02T22:12:04.746Z,99.90
2018-05-02T22:14:33.919Z,99.90
2018-05-02T22:17:03.050Z,99.90
2018-05-02T22:19:31.442Z,99.90
2018-05-02T22:22:00.435Z,99.90
2018-05-02T22:24:28.791Z,99.90
2018-05-02T22:26:57.935Z,99.90
2018-05-02T22:29:26.519Z,99.90
2018-05-02T22:31:55.726Z,99.90
2018-05-02T22:34:24.115Z,99.90
2018-05-02T22:36:52.487Z,99.90
2018-05-02T22:39:20.891Z,99.90
2018-05-02T22:41:49.263Z,99.90
2018-05-02T22:44:17.647Z,99.90
2018-05-02T22:46:47.926Z,99.90
2018-05-02T22:49:16.327Z,99.90
2018-05-02T22:51:44.711Z,99.90
2018-05-02T22:54:13.095Z,99.90
2018-05-02T22:56:41.463Z,99.90
2018-05-02T22:59:09.839Z,99.90
2018-05-02T23:01:38.447Z,99.90
2018-05-02T23:04:07.600Z,99.90
2018-05-02T23:06:35.993Z,99.90
2018-05-02T23:09:04.375Z,99.90
2018-05-02T23:11:32.763Z,99.90
2018-05-02T23:14:01.142Z,99.90
2018-05-02T23:16:31.075Z,99.90
2018-05-02T23:18:59.428Z,99.90
2018-05-02T23:21:27.774Z,99.90
2018-05-02T23:23:57.120Z,99.90
2018-05-02T23:26:25.494Z,99.90
2018-05-02T23:28:53.875Z,99.90
2018-05-02T23:31:22.243Z,99.90
2018-05-02T23:33:50.630Z,99.90
2018-05-02T23:36:19.053Z,99.90
2018-05-02T23:38:47.595Z,99.90
2018-05-02T23:41:15.973Z,99.90
2018-05-02T23:43:44.404Z,99.90
2018-05-02T23:46:12.936Z,99.90
2018-05-02T23:48:41.307Z,99.90
2018-05-02T23:51:09.740Z,99.90
2018-05-02T23:53:38.175Z,99.90
2018-05-02T23:56:06.573Z,99.90
2018-05-02T23:58:35.408Z,99.90
